Time;durP1;ratioP1;P1;durP2;ratioP2;P2;SDS_P1;SDS_P2;PMS_P1;PMS_P2;Temp;Humidity;BMP_temperature;BMP_pressure;BME280_temperature;BME280_humidity;BME280_pressure;Samples;Min_cycle;Max_cycle;Signal;HPM_P1;HPM_P2
2023/12/15 00:02:11;;;;;;;13.98;7.43;;;;;;;7.88;97.10;99183.06;4076574;29;20292;-93
2023/12/15 00:04:18;;;;;;;11.85;7.93;;;;;;;7.87;97.73;99183.97;4083036;29;20222;-93
2023/12/15 00:06:22;;;;;;;13.65;8.02;;;;;;;7.86;96.58;99185.72;4066682;29;20216;-93
2023/12/15 00:08:25;;;;;;;12.95;7.90;;;;;;;7.85;96.23;99191.81;4094797;29;20208;-93
2023/12/15 00:10:29;;;;;;;11.57;7.35;;;;;;;7.84;98.03;99195.31;4080228;29;20239;-93
2023/12/15 00:12:34;;;;;;;12.32;6.72;;;;;;;7.83;96.49;99197.97;4063629;29;20203;-93
2023/12/15 00:14:38;;;;;;;12.07;7.55;;;;;;;7.83;98.04;99208.38;4090811;28;20206;-93
2023/12/15 00:16:41;;;;;;;13.60;8.13;;;;;;;7.81;96.61;99208.44;4093682;29;20219;-93
2023/12/15 00:18:44;;;;;;;13.07;8.23;;;;;;;7.81;97.27;99210.19;4094442;28;20692;-93
2023/12/15 00:20:48;;;;;;;14.18;8.27;;;;;;;7.79;97.72;99206.81;4081863;28;20209;-93
2023/12/15 00:22:51;;;;;;;12.68;7.78;;;;;;;7.81;97.38;99213.63;4076248;29;20209;-92
2023/12/15 00:24:54;;;;;;;13.07;7.60;;;;;;;7.79;97.50;99209.41;4080282;29;20803;-92
2023/12/15 00:26:58;;;;;;;10.88;6.80;;;;;;;7.80;98.15;99211.09;4067784;29;20265;-93
2023/12/15 00:29:03;;;;;;;14.43;7.75;;;;;;;7.81;97.25;99212.78;4084367;29;20211;-92
2023/12/15 00:31:06;;;;;;;13.10;7.90;;;;;;;7.80;97.74;99218.88;4069267;29;20262;-92
2023/12/15 00:33:09;;;;;;;12.88;7.72;;;;;;;7.80;97.70;99221.47;4072865;29;20698;-92
2023/12/15 00:35:12;;;;;;;15.32;7.05;;;;;;;7.82;96.70;99232.63;4077293;29;20228;-92
2023/12/15 00:37:15;;;;;;;13.52;7.60;;;;;;;7.81;97.76;99234.38;4059378;29;20212;-92
2023/12/15 00:39:18;;;;;;;11.07;7.18;;;;;;;7.82;97.60;99230.91;4071903;29;20303;-92
2023/12/15 00:41:21;;;;;;;16.60;8.30;;;;;;;7.84;96.97;99239.47;4061645;29;20206;-92
2023/12/15 00:43:25;;;;;;;12.10;7.72;;;;;;;7.85;97.62;99237.69;4053786;29;20207;-92
2023/12/15 00:45:30;;;;;;;13.05;7.28;;;;;;;7.86;97.58;99236.81;4061931;29;20207;-91
2023/12/15 00:47:34;;;;;;;12.48;7.30;;;;;;;7.83;97.69;99242.13;4092465;28;20290;-93
2023/12/15 00:49:38;;;;;;;13.00;7.70;;;;;;;7.82;97.31;99243.00;4073966;29;20241;-92
2023/12/15 00:51:41;;;;;;;15.70;7.78;;;;;;;7.77;97.62;99255.34;4073180;29;20237;-92
2023/12/15 00:53:44;;;;;;;14.73;7.38;;;;;;;7.77;97.06;99252.75;4062292;29;20648;-93
2023/12/15 00:55:47;;;;;;;12.98;7.30;;;;;;;7.79;97.68;99261.34;4064521;29;20254;-92
2023/12/15 00:57:51;;;;;;;11.65;7.30;;;;;;;7.82;97.13;99269.84;4059223;29;20211;-93
2023/12/15 00:59:54;;;;;;;12.07;7.10;;;;;;;7.78;96.38;99270.84;4064094;29;20208;-93
2023/12/15 01:01:58;;;;;;;11.95;8.13;;;;;;;7.79;97.36;99269.97;4089263;28;20208;-93
2023/12/15 01:04:01;;;;;;;13.00;7.85;;;;;;;7.82;96.57;99276.78;4075712;29;20223;-93
2023/12/15 01:06:04;;;;;;;15.10;7.78;;;;;;;7.80;96.57;99268.22;4073802;29;20684;-92
2023/12/15 01:08:08;;;;;;;12.55;7.63;;;;;;;7.82;97.20;99279.38;4092926;28;20208;-93
2023/12/15 01:10:10;;;;;;;13.25;7.45;;;;;;;7.79;97.35;99280.34;4079494;29;20186;-93
2023/12/15 01:12:14;;;;;;;12.00;7.05;;;;;;;7.78;96.23;99276.06;4075518;29;20241;-92
2023/12/15 01:14:17;;;;;;;13.57;8.18;;;;;;;7.78;95.94;99281.25;4089823;28;20209;-93
2023/12/15 01:16:21;;;;;;;13.55;7.18;;;;;;;7.80;96.14;99297.59;4071315;29;20217;-93
2023/12/15 01:18:26;;;;;;;13.13;7.82;;;;;;;7.82;97.54;99297.53;4079065;29;20638;-93
2023/12/15 01:20:29;;;;;;;11.82;8.00;;;;;;;7.82;97.57;99301.00;4063922;29;20264;-92
2023/12/15 01:22:34;;;;;;;15.30;8.15;;;;;;;7.82;96.55;99297.53;4075979;29;20240;-92
2023/12/15 01:24:37;;;;;;;12.98;8.30;;;;;;;7.83;97.55;99307.88;4061747;29;20309;-92
2023/12/15 01:26:40;;;;;;;12.27;7.65;;;;;;;7.85;97.50;99307.81;4081632;28;20223;-93
2023/12/15 01:28:43;;;;;;;13.55;9.00;;;;;;;7.81;96.95;99312.28;4079422;29;20247;-92
2023/12/15 01:30:47;;;;;;;11.75;7.18;;;;;;;7.79;95.54;99315.88;4073766;29;20262;-92
2023/12/15 01:32:50;;;;;;;14.57;8.38;;;;;;;7.79;96.66;99319.28;4088216;29;20659;-93
2023/12/15 01:34:54;;;;;;;16.50;9.13;;;;;;;7.81;96.81;99317.47;4079004;29;20234;-92
2023/12/15 01:36:57;;;;;;;12.88;7.80;;;;;;;7.82;97.37;99333.91;4073211;29;20237;-93
2023/12/15 01:39:01;;;;;;;12.98;8.05;;;;;;;7.81;96.77;99332.22;4074558;29;20208;-94
2023/12/15 01:41:05;;;;;;;20.38;8.55;;;;;;;7.81;95.97;99343.44;4078370;29;20203;-92
2023/12/15 01:43:09;;;;;;;12.45;7.53;;;;;;;7.80;96.13;99339.16;4073211;29;20563;-93
2023/12/15 01:45:12;;;;;;;15.60;8.30;;;;;;;7.82;96.12;99344.28;4060029;29;20220;-93
2023/12/15 01:47:18;;;;;;;17.27;8.07;;;;;;;7.83;96.43;99346.00;4080093;29;20218;-93
2023/12/15 01:49:21;;;;;;;14.75;8.85;;;;;;;7.82;96.99;99346.88;4060788;29;20202;-92
2023/12/15 01:51:26;;;;;;;14.02;8.43;;;;;;;7.83;97.61;99349.41;4075140;29;20304;-93
2023/12/15 01:53:29;;;;;;;13.90;8.90;;;;;;;7.84;96.44;99352.88;4076463;29;20203;-92
2023/12/15 01:55:33;;;;;;;14.45;9.07;;;;;;;7.82;97.22;99352.06;4074970;29;20808;-93
2023/12/15 01:57:35;;;;;;;16.85;9.90;;;;;;;7.85;97.41;99355.44;4077659;29;20253;-93
2023/12/15 01:59:43;;;;;;;15.63;10.40;;;;;;;7.83;97.44;99349.41;4076118;29;20242;-93
2023/12/15 02:01:45;;;;;;;16.80;10.48;;;;;;;7.87;97.41;99360.56;4058943;29;20209;-93
2023/12/15 02:03:49;;;;;;;12.48;8.93;;;;;;;7.89;97.48;99362.19;4064311;29;20350;-93
2023/12/15 02:05:52;;;;;;;15.65;9.73;;;;;;;7.89;96.87;99356.16;4077317;29;20245;-92
2023/12/15 02:07:57;;;;;;;15.65;9.32;;;;;;;7.90;96.18;99355.25;4075626;29;20258;-93
2023/12/15 02:09:59;;;;;;;15.05;9.02;;;;;;;7.90;97.60;99357.84;4074266;29;20290;-92
2023/12/15 02:12:03;;;;;;;14.93;9.45;;;;;;;7.89;97.35;99363.94;4073686;29;20829;-92
2023/12/15 02:14:06;;;;;;;16.73;9.65;;;;;;;7.88;97.03;99364.84;4092855;28;20622;-92
2023/12/15 02:16:10;;;;;;;16.02;9.60;;;;;;;7.89;96.03;99363.94;4078284;29;20212;-92
2023/12/15 02:18:14;;;;;;;17.92;10.50;;;;;;;7.89;96.07;99363.94;4076265;29;20227;-93
2023/12/15 02:20:18;;;;;;;16.65;9.73;;;;;;;7.87;96.12;99365.75;4077585;29;20780;-93
2023/12/15 02:22:25;;;;;;;14.52;8.80;;;;;;;7.88;95.86;99364.84;4064264;29;20249;-93
2023/12/15 02:24:29;;;;;;;13.80;7.80;;;;;;;7.88;95.20;99373.50;4072504;29;20590;-93
2023/12/15 02:26:32;;;;;;;13.80;9.32;;;;;;;7.86;96.14;99372.69;4061580;29;20576;-93
2023/12/15 02:28:36;;;;;;;14.95;9.70;;;;;;;7.85;95.96;99377.94;4089068;28;20206;-93
2023/12/15 02:30:39;;;;;;;16.23;8.90;;;;;;;7.82;94.89;99372.84;4075336;29;20584;-93
2023/12/15 02:32:44;;;;;;;18.35;9.30;;;;;;;7.83;95.00;99374.56;4075502;29;20278;-92
2023/12/15 02:34:48;;;;;;;16.15;9.43;;;;;;;7.80;95.34;99370.31;4079559;29;20214;-92
2023/12/15 02:36:51;;;;;;;17.05;9.20;;;;;;;7.79;95.07;99373.81;4089666;28;20230;-92
2023/12/15 02:38:58;;;;;;;16.50;10.02;;;;;;;7.79;94.87;99370.41;4059343;29;20311;-92
2023/12/15 02:41:01;;;;;;;14.38;9.45;;;;;;;7.77;94.81;99373.03;4092875;28;20259;-93
2023/12/15 02:43:05;;;;;;;16.13;9.00;;;;;;;7.75;94.79;99374.81;4088556;28;20198;-93
2023/12/15 02:45:09;;;;;;;16.80;9.80;;;;;;;7.76;94.96;99376.53;4058242;29;20233;-93
2023/12/15 02:47:12;;;;;;;21.40;12.18;;;;;;;7.76;95.32;99380.88;4061629;29;20731;-93
2023/12/15 02:49:18;;;;;;;18.52;10.57;;;;;;;7.77;94.99;99382.56;4070865;29;20206;-93
2023/12/15 02:51:28;;;;;;;17.25;10.15;;;;;;;7.77;95.32;99388.63;4064671;29;20318;-93
2023/12/15 02:53:31;;;;;;;17.05;9.75;;;;;;;7.76;95.35;99392.13;4092152;28;20881;-93
2023/12/15 02:55:36;;;;;;;14.25;9.23;;;;;;;7.78;96.02;99397.25;4072782;29;20204;-93
2023/12/15 02:57:39;;;;;;;18.20;10.10;;;;;;;7.78;96.28;99405.88;4077365;29;20240;-92
2023/12/15 02:59:43;;;;;;;16.83;9.50;;;;;;;7.76;96.52;99402.50;4088217;29;20221;-92
2023/12/15 03:01:46;;;;;;;16.02;9.43;;;;;;;7.77;95.93;99411.13;4077572;29;20223;-92
2023/12/15 03:03:49;;;;;;;17.80;10.13;;;;;;;7.74;95.25;99408.63;4078955;29;20590;-93
2023/12/15 03:05:52;;;;;;;16.90;9.45;;;;;;;7.76;95.71;99412.03;4076747;29;20283;-93
2023/12/15 03:07:56;;;;;;;17.30;9.73;;;;;;;7.76;95.57;99410.28;4074128;29;20253;-94
2023/12/15 03:09:59;;;;;;;16.45;9.45;;;;;;;7.78;95.94;99416.25;4075114;29;20236;-93
2023/12/15 03:12:04;;;;;;;17.65;9.88;;;;;;;7.78;96.43;99410.22;4062716;29;22184;-94
2023/12/15 03:14:08;;;;;;;18.13;9.13;;;;;;;7.79;96.38;99417.97;4077279;29;20206;-93
2023/12/15 03:16:12;;;;;;;16.42;9.68;;;;;;;7.80;94.90;99418.81;4078481;29;20312;-93
2023/12/15 03:18:16;;;;;;;16.10;9.32;;;;;;;7.76;94.78;99425.03;4095487;29;20207;-94
2023/12/15 03:20:22;;;;;;;17.33;9.40;;;;;;;7.78;96.14;99431.84;4078207;29;20199;-93
2023/12/15 03:22:26;;;;;;;17.15;9.23;;;;;;;7.79;95.51;99427.53;4076253;29;20206;-92
2023/12/15 03:24:29;;;;;;;17.42;9.25;;;;;;;7.78;95.44;99433.59;4088418;28;20218;-92
2023/12/15 03:26:32;;;;;;;22.95;9.60;;;;;;;7.78;95.61;99437.03;4088258;29;20233;-92
2023/12/15 03:28:38;;;;;;;18.30;9.65;;;;;;;7.78;95.85;99442.22;4088900;28;20205;-93
2023/12/15 03:30:41;;;;;;;18.95;9.88;;;;;;;7.78;96.20;99444.81;4075251;29;20202;-94
2023/12/15 03:32:44;;;;;;;17.63;9.57;;;;;;;7.78;95.59;99444.00;4078178;29;20954;-93
2023/12/15 03:34:47;;;;;;;19.08;9.55;;;;;;;7.79;96.30;99437.91;4078439;29;20220;-93
2023/12/15 03:36:50;;;;;;;16.20;8.52;;;;;;;7.77;96.18;99435.38;4070748;29;20210;-93
2023/12/15 03:38:54;;;;;;;18.35;9.68;;;;;;;7.76;95.67;99438.84;4078485;29;20665;-93
2023/12/15 03:40:57;;;;;;;16.17;9.25;;;;;;;7.77;96.50;99445.75;4060859;29;20211;-93
2023/12/15 03:43:01;;;;;;;19.75;9.70;;;;;;;7.68;95.35;99440.00;4071533;29;20684;-93
2023/12/15 03:45:06;;;;;;;17.23;8.82;;;;;;;7.59;96.76;99435.13;4078644;29;20265;-92
2023/12/15 03:47:09;;;;;;;18.02;8.52;;;;;;;7.53;97.12;99450.94;4076242;29;20213;-93
2023/12/15 03:49:13;;;;;;;17.45;9.05;;;;;;;7.53;97.41;99464.78;4093335;28;20687;-92
2023/12/15 03:51:17;;;;;;;16.90;8.93;;;;;;;7.56;96.80;99466.41;4089642;28;20217;-93
2023/12/15 03:53:19;;;;;;;19.48;9.80;;;;;;;7.57;97.21;99468.94;4059190;29;20205;-92
2023/12/15 03:55:23;;;;;;;14.18;7.78;;;;;;;7.60;96.08;99473.19;4089078;28;20264;-92
2023/12/15 03:57:26;;;;;;;15.98;8.52;;;;;;;7.59;96.04;99471.47;4076634;29;20297;-93
2023/12/15 03:59:30;;;;;;;16.42;8.30;;;;;;;7.61;97.25;99480.09;4076337;29;20198;-92
2023/12/15 04:01:35;;;;;;;16.30;8.65;;;;;;;7.61;97.72;99473.13;4060110;29;20264;-93
2023/12/15 04:03:39;;;;;;;14.15;8.20;;;;;;;7.62;96.89;99479.16;4077147;29;20198;-92
2023/12/15 04:05:43;;;;;;;17.45;8.52;;;;;;;7.63;97.33;99486.06;4074387;29;20219;-92
2023/12/15 04:07:46;;;;;;;17.00;9.48;;;;;;;7.63;97.36;99480.88;4075121;29;20211;-92
2023/12/15 04:09:49;;;;;;;16.52;8.48;;;;;;;7.63;97.39;99483.47;4090012;28;20239;-92
2023/12/15 04:11:52;;;;;;;28.10;10.15;;;;;;;7.64;96.34;99478.22;4080326;29;20723;-93
2023/12/15 04:13:56;;;;;;;17.25;9.38;;;;;;;7.62;96.38;99472.25;4092672;28;20213;-93
2023/12/15 04:16:00;;;;;;;15.73;8.25;;;;;;;7.64;96.29;99491.19;4089131;28;20226;-93
2023/12/15 04:18:05;;;;;;;17.08;9.07;;;;;;;7.62;97.06;99489.53;4068428;29;20697;-93
2023/12/15 04:20:09;;;;;;;16.00;8.30;;;;;;;7.63;96.22;99494.69;4087267;28;20204;-93
2023/12/15 04:22:12;;;;;;;15.52;8.40;;;;;;;7.63;96.01;99496.44;4071716;29;20262;-93
2023/12/15 04:24:25;;;;;;;13.85;7.93;;;;;;;7.63;97.06;99494.69;4085669;29;20207;-93
2023/12/15 04:26:28;;;;;;;16.30;8.85;;;;;;;7.64;96.14;99505.94;4089976;28;20237;-93
2023/12/15 04:28:36;;;;;;;15.35;7.88;;;;;;;7.66;96.54;99509.31;4070209;29;20240;-93
2023/12/15 04:30:39;;;;;;;13.85;7.88;;;;;;;7.66;97.08;99510.16;4084455;28;20202;-93
2023/12/15 04:32:43;;;;;;;17.00;8.10;;;;;;;7.65;96.23;99515.41;4071620;29;20705;-94
2023/12/15 04:34:48;;;;;;;17.85;9.38;;;;;;;7.67;96.99;99508.44;4073445;29;20678;-94
2023/12/15 04:36:52;;;;;;;14.43;8.10;;;;;;;7.70;97.73;99516.13;4088932;28;20271;-93
2023/12/15 04:38:56;;;;;;;19.83;8.70;;;;;;;7.72;97.91;99519.50;4088617;28;20198;-93
2023/12/15 04:40:59;;;;;;;15.35;8.40;;;;;;;7.74;96.20;99517.69;4061439;29;20731;-94
2023/12/15 04:43:03;;;;;;;13.32;7.95;;;;;;;7.72;96.77;99520.34;4075635;29;20217;-93
2023/12/15 04:45:07;;;;;;;14.80;9.20;;;;;;;7.76;95.97;99521.09;4078677;29;20201;-93
2023/12/15 04:47:11;;;;;;;15.32;8.35;;;;;;;7.75;95.96;99528.03;4073300;29;20325;-93
2023/12/15 04:49:14;;;;;;;14.60;7.45;;;;;;;7.73;96.88;99518.59;4075129;29;20206;-94
2023/12/15 04:51:18;;;;;;;14.52;8.98;;;;;;;7.74;96.82;99534.13;4089727;29;20201;-94
2023/12/15 04:53:21;;;;;;;13.40;7.93;;;;;;;7.76;97.60;99531.50;4059238;29;20637;-93
2023/12/15 04:55:25;;;;;;;14.13;8.93;;;;;;;7.77;96.66;99536.63;4057174;29;20238;-93
2023/12/15 04:57:28;;;;;;;15.32;8.10;;;;;;;7.77;96.81;99539.22;4079335;29;20681;-94
2023/12/15 04:59:39;;;;;;;13.75;8.40;;;;;;;7.78;96.66;99540.06;4070222;29;20571;-93
2023/12/15 05:01:44;;;;;;;12.77;7.47;;;;;;;7.79;95.73;99542.59;4090553;28;20256;-93
2023/12/15 05:03:47;;;;;;;15.85;8.35;;;;;;;7.77;96.09;99543.53;4094184;28;20300;-93
2023/12/15 05:05:51;;;;;;;14.70;8.45;;;;;;;7.78;97.30;99547.84;4095216;28;20300;-93
2023/12/15 05:07:56;;;;;;;14.65;8.57;;;;;;;7.76;96.27;99547.91;4077834;29;20590;-93
2023/12/15 05:09:59;;;;;;;14.00;8.43;;;;;;;7.76;97.01;99544.47;4094840;29;20235;-93
2023/12/15 05:12:03;;;;;;;14.70;9.00;;;;;;;7.75;95.86;99546.19;4079216;29;20210;-93
2023/12/15 05:14:05;;;;;;;13.57;7.75;;;;;;;7.75;96.06;99542.75;4088827;29;20198;-93
2023/12/15 05:16:09;;;;;;;14.23;8.40;;;;;;;7.75;96.79;99553.97;4078115;29;20218;-93
2023/12/15 05:18:13;;;;;;;15.88;9.65;;;;;;;7.75;97.12;99558.34;4062245;29;20214;-93
2023/12/15 05:20:17;;;;;;;15.10;8.10;;;;;;;7.76;96.19;99563.47;4065725;29;20205;-93
2023/12/15 05:22:19;;;;;;;15.10;9.35;;;;;;;7.75;97.24;99566.97;4065849;29;20301;-93
2023/12/15 05:24:25;;;;;;;12.75;7.55;;;;;;;7.76;96.42;99570.44;4060974;29;20325;-93
2023/12/15 05:26:28;;;;;;;13.95;7.95;;;;;;;7.76;96.36;99570.44;4072796;29;20223;-94
2023/12/15 05:28:32;;;;;;;14.52;7.80;;;;;;;7.75;96.40;99574.75;4091063;28;20202;-94
2023/12/15 05:30:35;;;;;;;14.43;8.20;;;;;;;7.76;96.53;99580.81;4076032;29;20207;-93
2023/12/15 05:32:37;;;;;;;13.93;9.00;;;;;;;7.75;96.75;99584.31;4060615;29;20238;-93
2023/12/15 05:34:42;;;;;;;12.65;7.80;;;;;;;7.75;96.86;99587.75;4074821;29;20210;-93
2023/12/15 05:36:46;;;;;;;11.77;7.85;;;;;;;7.75;96.72;99589.50;4078629;29;20210;-93
2023/12/15 05:38:49;;;;;;;11.90;7.25;;;;;;;7.76;96.56;99599.00;4075223;29;20729;-93
2023/12/15 05:40:54;;;;;;;15.73;8.80;;;;;;;7.74;96.08;99595.56;4064252;29;20217;-93
2023/12/15 05:42:57;;;;;;;14.32;9.60;;;;;;;7.74;97.00;99603.38;4080648;29;20202;-94
2023/12/15 05:45:01;;;;;;;11.35;7.22;;;;;;;7.75;96.27;99608.50;4076143;29;20212;-92
2023/12/15 05:47:05;;;;;;;13.15;7.85;;;;;;;7.75;95.55;99618.06;4093992;28;20229;-94
2023/12/15 05:49:09;;;;;;;13.73;8.25;;;;;;;7.78;95.82;99620.56;4092234;28;20233;-94
2023/12/15 05:51:13;;;;;;;14.63;8.30;;;;;;;7.77;96.37;99631.81;4075791;29;20206;-93
2023/12/15 05:53:16;;;;;;;12.30;7.72;;;;;;;7.76;96.84;99633.59;4088773;29;21859;-94
2023/12/15 05:55:20;;;;;;;13.98;8.05;;;;;;;7.75;96.68;99641.44;4074344;29;20590;-93
2023/12/15 05:57:24;;;;;;;13.40;8.23;;;;;;;7.77;96.61;99650.00;4080162;29;20205;-94
2023/12/15 05:59:28;;;;;;;11.73;7.10;;;;;;;7.75;95.65;99647.47;4076184;29;20214;-93
2023/12/15 06:01:31;;;;;;;14.63;8.95;;;;;;;7.77;96.41;99650.88;4093290;28;20208;-92
2023/12/15 06:03:34;;;;;;;13.70;7.72;;;;;;;7.79;97.12;99661.22;4096951;29;20796;-93
2023/12/15 06:05:38;;;;;;;12.80;8.15;;;;;;;7.77;96.87;99653.47;4074636;29;20723;-93
2023/12/15 06:07:42;;;;;;;13.63;7.55;;;;;;;7.77;96.32;99657.78;4095468;29;20219;-92
2023/12/15 06:09:45;;;;;;;15.73;8.32;;;;;;;7.72;96.47;99657.94;4079148;29;20740;-93
2023/12/15 06:11:49;;;;;;;11.50;7.20;;;;;;;7.76;97.03;99661.31;4087806;28;20624;-93
2023/12/15 06:13:53;;;;;;;12.18;7.45;;;;;;;7.76;96.80;99664.75;4075273;29;20274;-94
2023/12/15 06:15:56;;;;;;;14.00;8.02;;;;;;;7.77;95.51;99660.41;4058904;29;20206;-94
2023/12/15 06:18:00;;;;;;;12.88;8.25;;;;;;;7.78;95.35;99664.69;4076452;29;20692;-94
2023/12/15 06:20:03;;;;;;;10.75;7.40;;;;;;;7.78;96.75;99667.28;4064895;29;20231;-94
2023/12/15 06:22:06;;;;;;;10.45;7.25;;;;;;;7.76;95.88;99666.50;4077654;29;20297;-94
2023/12/15 06:24:12;;;;;;;11.57;7.30;;;;;;;7.78;96.79;99681.13;4075447;29;20208;-93
2023/12/15 06:26:18;;;;;;;11.90;8.05;;;;;;;7.79;96.45;99675.03;4076181;29;20242;-93
2023/12/15 06:28:21;;;;;;;11.98;7.38;;;;;;;7.79;95.96;99671.59;4076972;29;20274;-94
2023/12/15 06:30:26;;;;;;;13.98;8.32;;;;;;;7.81;96.49;99682.78;4060914;29;20216;-94
2023/12/15 06:32:29;;;;;;;16.45;8.50;;;;;;;7.78;95.82;99675.94;4077031;29;20293;-94
2023/12/15 06:34:33;;;;;;;13.52;8.38;;;;;;;7.80;95.97;99681.06;4062687;29;20203;-93
2023/12/15 06:36:36;;;;;;;12.10;7.68;;;;;;;7.79;95.25;99687.19;4094639;28;20201;-94
2023/12/15 06:38:42;;;;;;;13.95;7.15;;;;;;;7.79;95.54;99685.44;4075035;29;20203;-93
2023/12/15 06:40:45;;;;;;;18.10;7.90;;;;;;;7.77;96.65;99686.34;4080690;29;20284;-94
2023/12/15 06:42:48;;;;;;;15.00;8.07;;;;;;;7.76;96.72;99692.47;4080732;29;20210;-94
2023/12/15 06:44:52;;;;;;;16.73;8.02;;;;;;;7.74;96.05;99691.66;4076059;29;20205;-94
2023/12/15 06:46:57;;;;;;;11.50;7.95;;;;;;;7.75;95.17;99704.59;4063603;29;20764;-95
2023/12/15 06:49:00;;;;;;;13.25;8.30;;;;;;;7.73;95.98;99702.94;4064801;29;20207;-94
2023/12/15 06:51:07;;;;;;;12.30;7.88;;;;;;;7.74;95.93;99709.81;4076549;29;20214;-96
2023/12/15 06:53:10;;;;;;;18.13;9.95;;;;;;;7.76;96.16;99710.66;4086985;28;20241;-94
2023/12/15 06:55:16;;;;;;;14.88;8.50;;;;;;;7.75;95.98;99714.97;4079252;29;20604;-95
2023/12/15 06:57:20;;;;;;;14.45;9.27;;;;;;;7.76;94.80;99718.44;4079923;29;20697;-94
2023/12/15 06:59:22;;;;;;;14.20;9.48;;;;;;;7.75;95.60;99719.31;4091603;28;20197;-95
2023/12/15 07:01:26;;;;;;;18.08;8.93;;;;;;;7.80;95.57;99720.03;4073385;29;20212;-94
2023/12/15 07:03:33;;;;;;;13.35;8.80;;;;;;;7.79;96.58;99726.13;4076682;29;20198;-96
2023/12/15 07:05:37;;;;;;;18.30;11.50;;;;;;;7.82;96.08;99734.66;4061158;29;20211;-94
2023/12/15 07:07:40;;;;;;;15.18;8.98;;;;;;;7.83;96.27;99741.53;4080875;29;20272;-96
2023/12/15 07:09:45;;;;;;;12.70;8.02;;;;;;;7.80;95.33;99735.59;4065376;29;20233;-95
2023/12/15 07:11:49;;;;;;;14.85;7.75;;;;;;;7.75;96.92;99742.69;4076172;29;20769;-94
2023/12/15 07:13:54;;;;;;;15.13;7.80;;;;;;;7.74;97.05;99741.84;4080850;29;20210;-94
2023/12/15 07:15:58;;;;;;;12.18;8.00;;;;;;;7.70;96.53;99740.25;4078558;29;20288;-96
2023/12/15 07:18:04;;;;;;;16.67;10.82;;;;;;;7.69;96.74;99732.50;4069420;29;20213;-95
2023/12/15 07:20:10;;;;;;;39.35;26.33;;;;;;;7.70;96.91;99740.25;4075876;29;20958;-94
2023/12/15 07:22:16;;;;;;;15.00;9.82;;;;;;;7.68;97.00;99741.16;4068916;29;20206;-94
2023/12/15 07:24:23;;;;;;;14.40;8.73;;;;;;;7.70;96.74;99739.41;4080484;28;20286;-95
2023/12/15 07:26:28;;;;;;;11.02;7.28;;;;;;;7.72;97.63;99742.78;4092407;28;20309;-94
2023/12/15 07:28:35;;;;;;;14.88;8.43;;;;;;;7.72;96.69;99748.81;4063946;29;20220;-94
2023/12/15 07:30:41;;;;;;;13.98;8.70;;;;;;;7.77;97.29;99757.34;4068670;29;20211;-94
2023/12/15 07:32:44;;;;;;;11.90;7.55;;;;;;;7.81;97.00;99764.13;4065735;29;20226;-94
2023/12/15 07:34:49;;;;;;;13.05;8.07;;;;;;;7.82;96.83;99764.97;4082727;29;20219;-94
2023/12/15 07:36:54;;;;;;;12.75;7.68;;;;;;;7.80;96.69;99772.78;4099661;29;20208;-94
2023/12/15 07:38:57;;;;;;;13.75;9.52;;;;;;;7.77;96.74;99767.72;4074037;29;20218;-95
2023/12/15 07:41:01;;;;;;;13.32;8.35;;;;;;;7.75;97.29;99774.69;4089409;29;20268;-96
2023/12/15 07:43:05;;;;;;;11.85;7.50;;;;;;;7.74;97.07;99772.16;4068771;29;20216;-96
2023/12/15 07:45:09;;;;;;;11.52;7.47;;;;;;;7.77;97.55;99779.84;4061522;29;21950;-93
2023/12/15 07:47:13;;;;;;;13.70;8.52;;;;;;;7.78;97.51;99791.94;4074364;29;20198;-95
2023/12/15 07:49:16;;;;;;;16.80;9.15;;;;;;;7.80;97.72;99787.53;4075290;29;20286;-92
2023/12/15 07:51:21;;;;;;;14.20;9.27;;;;;;;7.80;96.76;99792.72;4080416;29;20683;-92
2023/12/15 07:53:26;;;;;;;13.63;8.65;;;;;;;7.79;96.91;99780.66;4065712;29;20203;-92
2023/12/15 07:55:29;;;;;;;15.32;10.15;;;;;;;7.83;96.53;99787.44;4060894;29;20269;-94
2023/12/15 07:57:33;;;;;;;15.25;9.68;;;;;;;7.82;97.39;99784.00;4059697;29;20650;-95
2023/12/15 07:59:37;;;;;;;16.65;10.13;;;;;;;7.86;97.84;99788.19;4067957;29;20221;-95
2023/12/15 08:01:55;;;;;;;16.92;10.60;;;;;;;7.89;97.76;99793.28;4084694;28;20217;-94
2023/12/15 08:04:01;;;;;;;17.70;10.25;;;;;;;7.95;97.24;99793.09;4063555;29;20269;-94
2023/12/15 08:06:04;;;;;;;14.63;9.88;;;;;;;7.98;97.08;99793.88;4064023;29;20210;-93
2023/12/15 08:08:08;;;;;;;18.02;9.93;;;;;;;8.01;96.71;99799.00;4077440;29;20250;-93
2023/12/15 08:10:13;;;;;;;16.85;10.40;;;;;;;8.04;97.11;99804.09;4080048;29;20634;-92
2023/12/15 08:12:16;;;;;;;16.65;10.48;;;;;;;8.10;97.16;99810.81;4077565;29;20243;-94
2023/12/15 08:14:20;;;;;;;17.60;11.00;;;;;;;8.10;97.47;99813.41;4067551;29;20226;-94
2023/12/15 08:16:23;;;;;;;17.25;11.35;;;;;;;8.11;96.63;99813.41;4077339;29;20200;-93
2023/12/15 08:18:27;;;;;;;19.85;12.18;;;;;;;8.13;96.77;99809.03;4059424;29;20216;-93
2023/12/15 08:20:33;;;;;;;22.13;13.10;;;;;;;8.15;97.55;99816.78;4063525;29;20217;-94
2023/12/15 08:22:37;;;;;;;16.52;10.57;;;;;;;8.17;96.92;99821.00;4063706;29;20208;-93
2023/12/15 08:24:42;;;;;;;16.58;9.90;;;;;;;8.19;96.59;99821.81;4071814;29;20221;-93
2023/12/15 08:26:45;;;;;;;15.38;10.10;;;;;;;8.20;97.09;99820.09;4080451;29;20214;-93
2023/12/15 08:28:49;;;;;;;18.10;10.07;;;;;;;8.20;97.01;99826.13;4078004;29;20214;-92
2023/12/15 08:30:52;;;;;;;16.83;9.70;;;;;;;8.21;97.51;99830.44;4079463;29;20213;-92
2023/12/15 08:32:58;;;;;;;17.85;10.60;;;;;;;8.23;97.64;99836.41;4072585;29;20206;-90
2023/12/15 08:35:01;;;;;;;14.73;9.10;;;;;;;8.21;97.07;99839.94;4072346;29;20199;-88
2023/12/15 08:37:05;;;;;;;17.50;11.05;;;;;;;8.21;97.16;99843.41;4074942;29;20209;-89
2023/12/15 08:39:09;;;;;;;15.63;10.27;;;;;;;8.23;96.39;99843.38;4073473;29;20213;-90
2023/12/15 08:41:15;;;;;;;15.48;10.48;;;;;;;8.24;96.18;99847.66;4064493;29;20204;-90
2023/12/15 08:43:19;;;;;;;15.98;10.40;;;;;;;8.26;95.58;99851.06;4065884;29;20207;-90
2023/12/15 08:45:23;;;;;;;17.90;12.43;;;;;;;8.27;95.81;99855.34;4074336;29;20227;-90
2023/12/15 08:47:26;;;;;;;20.38;12.60;;;;;;;8.26;96.66;99859.72;4094104;28;20209;-90
2023/12/15 08:49:29;;;;;;;19.00;13.98;;;;;;;8.26;95.79;99867.50;4078485;29;20227;-88
2023/12/15 08:51:33;;;;;;;20.23;13.15;;;;;;;8.28;96.15;99867.47;4079178;29;20208;-90
2023/12/15 08:53:36;;;;;;;20.45;12.48;;;;;;;8.29;95.92;99870.00;4064897;29;20286;-92
2023/12/15 08:55:39;;;;;;;20.83;14.25;;;;;;;8.31;95.16;99868.22;4070965;29;20210;-90
2023/12/15 08:57:43;;;;;;;23.80;13.20;;;;;;;8.31;96.51;99870.81;4063478;29;20538;-90
2023/12/15 08:59:47;;;;;;;20.98;12.10;;;;;;;8.33;96.43;99875.97;4075287;29;20258;-90
2023/12/15 09:01:51;;;;;;;18.83;10.43;;;;;;;8.33;96.30;99871.63;4075666;29;20216;-90
2023/12/15 09:03:54;;;;;;;17.42;10.93;;;;;;;8.35;96.65;99877.63;4066288;29;20218;-91
2023/12/15 09:05:57;;;;;;;24.90;17.23;;;;;;;8.36;95.37;99878.47;4094682;28;20700;-89
2023/12/15 09:08:21;;;;;;;24.65;15.52;;;;;;;8.36;95.52;99876.75;4059484;29;20259;-91
2023/12/15 09:10:24;;;;;;;18.95;13.40;;;;;;;8.35;95.71;99882.81;4094993;28;20320;-91
2023/12/15 09:12:27;;;;;;;19.73;12.18;;;;;;;8.37;95.39;99888.81;4074707;29;20269;-91
2023/12/15 09:14:31;;;;;;;20.05;13.77;;;;;;;8.39;95.77;99881.84;4074159;29;20214;-93
2023/12/15 09:16:36;;;;;;;18.25;10.90;;;;;;;8.38;95.82;99877.53;4091833;28;20713;-94
2023/12/15 09:18:40;;;;;;;18.45;12.23;;;;;;;8.40;96.00;99887.88;4079809;29;20652;-94
2023/12/15 09:20:43;;;;;;;17.48;11.68;;;;;;;8.41;96.39;99881.78;4076488;29;20218;-93
2023/12/15 09:22:47;;;;;;;17.15;11.95;;;;;;;8.42;95.25;99883.47;4066097;29;20222;-95
2023/12/15 09:24:51;;;;;;;16.90;11.15;;;;;;;8.44;95.61;99892.94;4076520;29;20220;-95
2023/12/15 09:26:55;;;;;;;14.15;10.25;;;;;;;8.47;95.89;99900.63;4075858;29;20232;-95
2023/12/15 09:28:58;;;;;;;16.10;11.77;;;;;;;8.48;95.32;99892.78;4075149;29;20309;-95
2023/12/15 09:31:02;;;;;;;18.25;11.60;;;;;;;8.54;95.96;99903.00;4074385;29;21034;-93
2023/12/15 09:33:07;;;;;;;16.67;10.07;;;;;;;8.58;95.96;99896.78;4064601;29;20698;-92
2023/12/15 09:35:17;;;;;;;13.32;9.02;;;;;;;8.60;95.67;99896.75;4075267;29;20209;-86
2023/12/15 09:37:20;;;;;;;12.80;9.13;;;;;;;8.59;95.73;99897.66;4070454;29;20642;-88
2023/12/15 09:39:24;;;;;;;15.35;10.13;;;;;;;8.52;96.86;99896.13;4073855;29;20197;-90
2023/12/15 09:41:28;;;;;;;14.68;9.20;;;;;;;8.46;96.35;99891.13;4063269;29;20274;-89
2023/12/15 09:43:31;;;;;;;14.93;9.32;;;;;;;8.42;96.75;99894.75;4078667;29;20309;-90